KGAG/GAG METAR and TAF weather

Enter ICAO airport designator
Station Type Date Time Source
KGAG METAR 2019/08/19 00:53 UTC NOAA

KGAG 190053Z AUTO 14006KT 10SM CLR 33/18 A2985 RMK AO2 SLP075 T03330183


Station Type Date Time Source
KGAG Decoded METAR 2019/08/19 00:53 UTC NOAA

Station name not available
Aug 18, 2019 - 08:53 PM EDT / 2019.08.19 0053 UTC
Wind: from the SE (140 degrees) at 7 MPH (6 KT):0
Visibility: 10 mile(s):0
Sky conditions: clear
Temperature: 91.9 F (33.3 C)
Heat index: 94.1 F (34.5 C):1
Dew Point: 64.9 F (18.3 C)
Relative Humidity: 41%
Pressure (altimeter): 29.85 in. Hg (1010 hPa)
ob: KGAG 190053Z AUTO 14006KT 10SM CLR 33/18 A2985 RMK AO2 SLP075 T03330183
cycle: 1

Station Type Date Time Source
KGAG TAF 2018/03/21 06:22 UTC NOAA

TAF KGAG 210520Z 2106/2206 VRB04KT P6SM SCT250
FM211300 16008KT P6SM SCT250
FM211800 18012G22KT P6SM BKN250

Example: see airport list